createdAt,value
2022-08-22T00:01:18.030Z,2.65
2022-08-22T00:02:45.175Z,2.35
2022-08-22T00:02:52.693Z,1.90
2022-08-22T00:02:56.161Z,2.30
2022-08-22T00:02:59.525Z,2.20
2022-08-22T00:03:11.562Z,2.65
2022-08-22T00:04:33.311Z,3.08
2022-08-22T00:07:08.193Z,2.53
2022-08-22T00:10:21.003Z,2.85
2022-08-22T00:13:02.389Z,2.80
2022-08-22T00:15:45.228Z,3.00
2022-08-22T00:18:32.025Z,3.20
2022-08-22T00:21:25.325Z,3.13
2022-08-22T00:24:10.939Z,3.53
2022-08-22T00:26:49.391Z,2.80
2022-08-22T00:29:57.460Z,2.50
2022-08-22T00:32:51.046Z,2.97
2022-08-22T00:35:39.604Z,3.00
2022-08-22T00:38:17.714Z,2.67
2022-08-22T00:41:18.547Z,3.25
2022-08-22T00:43:57.579Z,2.90
2022-08-22T00:46:47.567Z,2.47
2022-08-22T00:49:18.625Z,3.33
2022-08-22T00:52:19.330Z,2.95
2022-08-22T00:54:59.347Z,2.90
2022-08-22T00:57:30.397Z,3.13
2022-08-22T01:00:12.877Z,3.40
2022-08-22T01:03:13.347Z,3.45
2022-08-22T01:06:04.559Z,3.25
2022-08-22T01:08:54.102Z,3.40
2022-08-22T01:11:27.515Z,3.17
2022-08-22T01:14:13.128Z,2.63
2022-08-22T01:17:09.336Z,3.30
2022-08-22T01:20:15.346Z,2.67
2022-08-22T01:22:49.557Z,3.20
2022-08-22T01:25:36.257Z,3.80
2022-08-22T01:28:42.022Z,3.88
2022-08-22T01:31:35.973Z,4.43
2022-08-22T01:34:32.054Z,3.60
2022-08-22T01:37:07.793Z,3.75
2022-08-22T01:40:05.587Z,3.58
2022-08-22T01:43:09.382Z,3.60
2022-08-22T01:45:53.645Z,3.75
2022-08-22T01:48:46.398Z,4.75
2022-08-22T01:51:18.984Z,4.18
2022-08-22T01:54:28.491Z,4.20
2022-08-22T01:57:01.484Z,4.00
2022-08-22T01:59:34.742Z,4.05
2022-08-22T02:02:32.400Z,4.75
2022-08-22T02:05:09.772Z,5.72
2022-08-22T02:07:46.546Z,5.18
2022-08-22T02:10:26.852Z,4.75
2022-08-22T02:13:18.945Z,4.75
2022-08-22T02:15:50.586Z,5.05
2022-08-22T02:18:26.163Z,4.80
2022-08-22T02:20:57.435Z,5.18
2022-08-22T02:23:44.576Z,4.78
2022-08-22T02:26:22.518Z,4.55
2022-08-22T02:29:17.936Z,4.75
2022-08-22T02:32:02.800Z,4.90
2022-08-22T02:34:37.414Z,4.60
2022-08-22T02:37:49.255Z,4.35
2022-08-22T02:40:23.328Z,4.80
2022-08-22T02:43:09.932Z,4.60
2022-08-22T02:45:48.607Z,4.95
2022-08-22T02:48:19.891Z,5.50
2022-08-22T02:50:59.096Z,4.30
2022-08-22T02:53:37.443Z,4.53
2022-08-22T02:56:26.983Z,4.90
2022-08-22T02:59:12.798Z,5.13
2022-08-22T03:01:43.887Z,4.80
2022-08-22T03:04:30.528Z,5.03
2022-08-22T03:06:58.757Z,4.35
2022-08-22T03:09:55.918Z,4.32
2022-08-22T03:12:45.354Z,4.32
2022-08-22T03:15:32.050Z,3.53
2022-08-22T03:18:32.307Z,4.70
2022-08-22T03:21:24.401Z,4.38
2022-08-22T03:23:57.757Z,4.82
2022-08-22T03:26:30.013Z,4.38
2022-08-22T03:29:21.572Z,4.65
2022-08-22T03:32:20.343Z,4.30
2022-08-22T03:35:31.200Z,4.57
2022-08-22T03:38:33.064Z,4.47
2022-08-22T03:41:13.539Z,5.25
2022-08-22T03:43:59.772Z,5.00
2022-08-22T03:46:50.892Z,4.97
2022-08-22T03:49:54.776Z,4.40
2022-08-22T03:53:15.334Z,4.33
2022-08-22T03:56:24.657Z,4.18
2022-08-22T03:59:14.277Z,4.60
2022-08-22T04:02:02.187Z,4.88
2022-08-22T04:05:24.740Z,4.43
2022-08-22T04:08:19.690Z,4.43
2022-08-22T04:11:02.464Z,4.00
2022-08-22T04:13:34.868Z,4.65
2022-08-22T04:16:13.340Z,3.92
2022-08-22T04:19:17.515Z,4.00
2022-08-22T04:22:42.959Z,3.80
2022-08-22T04:25:46.464Z,4.15
2022-08-22T04:28:20.601Z,3.55
2022-08-22T04:31:10.618Z,4.13
2022-08-22T04:34:07.439Z,3.80
2022-08-22T04:36:40.437Z,4.65
2022-08-22T04:42:47.539Z,4.65
2022-08-22T04:45:22.965Z,4.03
2022-08-22T04:48:01.813Z,4.72
2022-08-22T04:50:46.230Z,5.22
2022-08-22T04:53:45.054Z,4.70
2022-08-22T04:56:43.749Z,4.68
2022-08-22T04:59:13.387Z,4.30
2022-08-22T05:01:47.074Z,4.60
2022-08-22T05:04:28.459Z,4.53
2022-08-22T05:07:11.463Z,4.85
2022-08-22T05:09:45.950Z,4.50
2022-08-22T05:12:16.117Z,4.80
2022-08-22T05:14:59.880Z,4.93
2022-08-22T05:17:30.100Z,4.63
2022-08-22T05:20:00.848Z,4.85
2022-08-22T05:22:32.192Z,5.43
2022-08-22T05:25:03.141Z,5.43
2022-08-22T05:27:45.925Z,5.22
2022-08-22T05:30:22.134Z,4.65
2022-08-22T05:33:13.241Z,5.35
2022-08-22T05:35:47.251Z,5.07
2022-08-22T05:38:21.131Z,4.97
2022-08-22T05:41:01.262Z,4.57
2022-08-22T05:43:29.752Z,4.03
2022-08-22T05:45:58.730Z,4.68
2022-08-22T05:48:43.626Z,4.88
2022-08-22T05:51:21.933Z,5.45
2022-08-22T05:53:53.778Z,4.50
2022-08-22T05:56:27.892Z,5.13
2022-08-22T05:59:00.336Z,4.65
2022-08-22T06:01:38.557Z,5.20
2022-08-22T06:04:25.227Z,5.05
2022-08-22T06:07:15.558Z,5.22
2022-08-22T06:09:47.021Z,4.93
2022-08-22T06:12:35.576Z,4.63
2022-08-22T06:15:23.918Z,4.47
2022-08-22T06:18:05.474Z,4.30
2022-08-22T06:20:45.429Z,4.30
2022-08-22T06:23:29.036Z,4.43
2022-08-22T06:25:59.793Z,6.15
2022-08-22T06:28:33.142Z,5.65
2022-08-22T06:31:01.441Z,5.05
2022-08-22T06:33:31.166Z,4.85
2022-08-22T06:36:21.225Z,4.97
2022-08-22T06:38:53.944Z,4.75
2022-08-22T06:41:22.500Z,6.50
2022-08-22T06:43:51.117Z,9.85
2022-08-22T06:46:19.928Z,22.08
2022-08-22T06:48:48.330Z,21.75
2022-08-22T06:51:16.979Z,9.35
2022-08-22T06:53:51.032Z,7.75
2022-08-22T06:56:25.037Z,6.18
2022-08-22T06:58:55.078Z,5.75
2022-08-22T07:01:28.490Z,5.05
2022-08-22T07:04:04.370Z,5.43
2022-08-22T07:06:37.240Z,5.25
2022-08-22T07:09:06.775Z,5.13
2022-08-22T07:11:42.234Z,4.45
2022-08-22T07:14:12.893Z,4.20
2022-08-22T07:16:52.563Z,3.97
2022-08-22T07:19:37.262Z,5.30
2022-08-22T07:22:17.117Z,4.72
2022-08-22T07:24:51.884Z,4.85
2022-08-22T07:27:40.473Z,4.85
2022-08-22T07:30:10.952Z,5.32
2022-08-22T07:33:26.301Z,4.97
2022-08-22T07:36:00.008Z,5.28
2022-08-22T07:38:44.119Z,5.53
2022-08-22T07:41:24.547Z,7.15
2022-08-22T07:44:01.276Z,5.85
2022-08-22T07:46:36.166Z,6.25
2022-08-22T07:49:16.842Z,6.03
2022-08-22T07:51:56.755Z,6.43
2022-08-22T07:54:41.892Z,6.00
2022-08-22T07:57:22.878Z,6.45
2022-08-22T07:59:57.104Z,6.22
2022-08-22T08:02:26.756Z,7.20
2022-08-22T08:04:57.321Z,7.60
2022-08-22T08:07:26.979Z,7.18
2022-08-22T08:10:02.322Z,6.47
2022-08-22T08:12:38.424Z,7.18
2022-08-22T08:15:10.410Z,8.77
2022-08-22T08:17:38.891Z,10.23
2022-08-22T08:20:09.941Z,7.35
2022-08-22T08:22:39.194Z,6.47
2022-08-22T08:25:09.459Z,6.63
2022-08-22T08:27:57.262Z,6.90
2022-08-22T08:30:38.155Z,6.93
2022-08-22T08:33:25.179Z,6.93
2022-08-22T08:36:18.299Z,7.60
2022-08-22T08:39:04.450Z,6.30
2022-08-22T08:41:54.733Z,6.90
2022-08-22T08:44:41.527Z,7.07
2022-08-22T08:47:35.043Z,7.43
2022-08-22T08:50:44.826Z,7.07
2022-08-22T08:53:36.900Z,7.72
2022-08-22T08:56:47.187Z,8.35
2022-08-22T08:59:21.734Z,7.10
2022-08-22T09:02:09.603Z,7.80
2022-08-22T09:05:13.182Z,6.25
2022-08-22T09:08:17.254Z,8.40
2022-08-22T09:11:15.845Z,7.25
2022-08-22T09:13:51.246Z,8.68
2022-08-22T09:16:45.082Z,8.98
2022-08-22T09:19:41.590Z,7.38
2022-08-22T09:22:14.231Z,8.25
2022-08-22T09:24:54.821Z,7.65
2022-08-22T09:27:36.808Z,7.75
2022-08-22T09:30:11.517Z,7.22
2022-08-22T09:32:55.713Z,6.65
2022-08-22T09:35:42.645Z,7.55
2022-08-22T09:38:32.737Z,7.18
2022-08-22T09:41:14.499Z,7.03
2022-08-22T09:43:50.539Z,7.32
2022-08-22T09:46:36.772Z,13.98
2022-08-22T09:49:13.378Z,7.95
2022-08-22T09:52:14.384Z,7.57
2022-08-22T09:54:55.103Z,6.63
2022-08-22T09:57:39.971Z,7.38
2022-08-22T10:00:22.219Z,7.53
2022-08-22T10:03:11.698Z,8.05
2022-08-22T10:05:50.043Z,7.50
2022-08-22T10:08:39.992Z,7.10
2022-08-22T10:11:54.507Z,7.07
2022-08-22T10:15:02.896Z,7.40
2022-08-22T10:17:41.097Z,7.47
2022-08-22T10:20:25.244Z,7.60
2022-08-22T10:23:45.896Z,7.07
2022-08-22T10:26:23.041Z,7.32
2022-08-22T10:29:09.582Z,7.60
2022-08-22T10:31:59.028Z,6.97
2022-08-22T10:34:33.819Z,6.63
2022-08-22T10:37:27.589Z,7.47
2022-08-22T10:40:14.281Z,7.00
2022-08-22T10:42:53.789Z,6.88
2022-08-22T10:45:36.661Z,7.00
2022-08-22T10:48:07.995Z,7.05
2022-08-22T10:50:49.536Z,7.65
2022-08-22T10:53:31.479Z,8.05
2022-08-22T10:56:13.197Z,7.13
2022-08-22T10:58:52.914Z,6.85
2022-08-22T11:01:41.048Z,7.03
2022-08-22T11:04:33.289Z,7.10
2022-08-22T11:07:24.798Z,6.60
2022-08-22T11:09:56.358Z,7.28
2022-08-22T11:12:41.661Z,7.50
2022-08-22T11:15:28.209Z,7.00
2022-08-22T11:18:08.199Z,7.40
2022-08-22T11:21:02.396Z,8.07
2022-08-22T11:24:34.710Z,6.38
2022-08-22T11:27:38.179Z,7.22
2022-08-22T11:30:36.281Z,7.35
2022-08-22T11:33:21.540Z,7.13
2022-08-22T11:36:26.338Z,7.28
2022-08-22T11:38:58.925Z,7.40
2022-08-22T11:41:45.699Z,7.38
2022-08-22T11:44:28.080Z,7.03
2022-08-22T11:46:58.102Z,7.95
2022-08-22T11:49:49.344Z,7.28
2022-08-22T11:52:22.182Z,7.72
2022-08-22T11:55:09.415Z,7.00
2022-08-22T11:57:45.151Z,6.78
2022-08-22T12:00:28.729Z,7.28
2022-08-22T12:03:02.483Z,7.07
2022-08-22T12:05:34.363Z,7.15
2022-08-22T12:08:06.894Z,7.82
2022-08-22T12:10:37.689Z,6.53
2022-08-22T12:13:46.278Z,7.47
2022-08-22T12:16:35.079Z,7.28
2022-08-22T12:19:42.103Z,7.78
2022-08-22T12:23:01.829Z,8.00
2022-08-22T12:25:49.479Z,7.32
2022-08-22T12:28:24.013Z,8.02
2022-08-22T12:31:13.830Z,7.95
2022-08-22T12:34:09.646Z,8.05
2022-08-22T12:37:01.877Z,7.40
2022-08-22T12:40:09.590Z,7.65
2022-08-22T12:43:21.886Z,7.88
2022-08-22T12:46:13.075Z,7.35
2022-08-22T12:48:46.595Z,7.90
2022-08-22T12:51:26.017Z,8.30
2022-08-22T12:54:34.571Z,7.72
2022-08-22T12:57:25.166Z,7.82
2022-08-22T12:59:58.212Z,7.88
2022-08-22T13:02:32.643Z,8.25
2022-08-22T13:05:19.980Z,8.27
2022-08-22T13:07:57.185Z,8.20
2022-08-22T13:10:39.376Z,8.32
2022-08-22T13:13:12.115Z,8.13
2022-08-22T13:15:53.829Z,8.43
2022-08-22T13:18:29.679Z,7.90
2022-08-22T13:21:01.787Z,7.97
2022-08-22T13:23:39.634Z,8.27
2022-08-22T13:26:16.482Z,8.75
2022-08-22T13:29:27.041Z,8.35
2022-08-22T13:31:55.174Z,8.73
2022-08-22T13:34:38.419Z,7.45
2022-08-22T13:37:13.824Z,8.50
2022-08-22T13:39:45.835Z,8.82
2022-08-22T13:42:30.030Z,8.35
2022-08-22T13:45:03.001Z,8.55
2022-08-22T13:47:35.377Z,8.18
2022-08-22T13:50:17.296Z,7.70
2022-08-22T13:53:10.878Z,8.45
2022-08-22T13:55:49.078Z,8.10
2022-08-22T13:58:27.145Z,8.27
2022-08-22T14:00:58.512Z,8.77
2022-08-22T14:03:44.330Z,8.45
2022-08-22T14:06:38.087Z,9.07
2022-08-22T14:09:37.583Z,7.47
2022-08-22T14:12:12.543Z,8.32
2022-08-22T14:14:46.030Z,8.27
2022-08-22T14:17:27.057Z,7.97
2022-08-22T14:20:01.503Z,8.30
2022-08-22T14:22:35.615Z,8.45
2022-08-22T14:25:28.081Z,8.10
2022-08-22T14:28:06.245Z,7.68
2022-08-22T14:30:40.228Z,7.78
2022-08-22T14:33:23.832Z,7.50
2022-08-22T14:35:56.123Z,7.63
2022-08-22T14:38:37.372Z,7.30
2022-08-22T14:41:14.575Z,6.88
2022-08-22T14:44:02.401Z,7.38
2022-08-22T14:46:33.675Z,6.65
2022-08-22T14:49:02.842Z,6.82
2022-08-22T14:51:31.139Z,7.63
2022-08-22T14:54:21.477Z,7.70
2022-08-22T14:56:51.861Z,7.07
2022-08-22T14:59:50.346Z,7.40
2022-08-22T15:02:29.136Z,7.25
2022-08-22T15:04:58.673Z,7.03
2022-08-22T15:07:30.071Z,7.53
2022-08-22T15:10:20.795Z,6.18
2022-08-22T15:12:54.608Z,6.45
2022-08-22T15:15:52.978Z,6.05
2022-08-22T15:18:29.624Z,6.38
2022-08-22T15:21:11.248Z,6.28
2022-08-22T15:23:45.437Z,6.40
2022-08-22T15:26:28.112Z,6.30
2022-08-22T15:29:09.282Z,6.90
2022-08-22T15:31:41.469Z,6.35
2022-08-22T15:34:22.389Z,6.28
2022-08-22T15:37:17.557Z,6.20
2022-08-22T15:40:48.028Z,7.95
2022-08-22T15:43:28.846Z,7.70
2022-08-22T15:46:21.546Z,6.28
2022-08-22T15:49:02.901Z,6.53
2022-08-22T15:51:46.736Z,10.02
2022-08-22T15:54:31.541Z,6.65
2022-08-22T15:57:25.958Z,7.03
2022-08-22T16:00:23.167Z,6.47
2022-08-22T16:03:08.528Z,7.20
2022-08-22T16:05:38.216Z,6.50
2022-08-22T16:08:13.504Z,6.82
2022-08-22T16:10:54.117Z,6.20
2022-08-22T16:13:31.195Z,6.30
2022-08-22T16:16:25.956Z,6.43
2022-08-22T16:18:55.455Z,8.77
2022-08-22T16:21:24.087Z,7.60
2022-08-22T16:23:58.860Z,6.90
2022-08-22T16:26:30.499Z,6.38
2022-08-22T16:29:02.437Z,6.30
2022-08-22T16:31:56.634Z,6.15
2022-08-22T16:34:27.701Z,6.05
2022-08-22T16:37:21.831Z,6.22
2022-08-22T16:40:04.717Z,6.85
2022-08-22T16:42:47.457Z,6.85
2022-08-22T16:45:21.652Z,6.10
2022-08-22T16:47:56.769Z,6.55
2022-08-22T16:50:33.410Z,6.18
2022-08-22T16:53:11.442Z,5.85
2022-08-22T16:55:46.828Z,6.25
2022-08-22T16:59:09.869Z,5.95
2022-08-22T17:02:01.016Z,6.75
2022-08-22T17:04:48.687Z,6.70
2022-08-22T17:07:25.983Z,6.70
2022-08-22T17:10:12.239Z,6.50
2022-08-22T17:13:02.718Z,7.03
2022-08-22T17:16:00.879Z,6.40
2022-08-22T17:18:44.960Z,7.00
2022-08-22T17:21:26.039Z,6.97
2022-08-22T17:24:31.927Z,7.05
2022-08-22T17:27:33.881Z,7.25
2022-08-22T17:30:22.536Z,7.07
2022-08-22T17:33:58.493Z,6.88
2022-08-22T17:36:30.120Z,6.55
2022-08-22T17:39:24.672Z,7.20
2022-08-22T17:42:25.669Z,6.43
2022-08-22T17:45:02.274Z,7.20
2022-08-22T17:47:44.773Z,6.25
2022-08-22T17:50:35.054Z,6.78
2022-08-22T17:53:10.391Z,5.95
2022-08-22T17:55:57.619Z,6.28
2022-08-22T17:58:35.691Z,5.90
2022-08-22T18:01:32.512Z,6.53
2022-08-22T18:04:02.217Z,6.18
2022-08-22T18:06:34.069Z,5.80
2022-08-22T18:09:14.959Z,6.45
2022-08-22T18:12:04.018Z,8.05
2022-08-22T18:14:53.604Z,8.93
2022-08-22T18:17:45.501Z,9.13
2022-08-22T18:20:26.272Z,9.80
2022-08-22T18:22:57.920Z,10.50
2022-08-22T18:25:47.325Z,9.95
2022-08-22T18:28:32.791Z,8.48
2022-08-22T18:31:13.250Z,7.93
2022-08-22T18:33:49.130Z,7.13
2022-08-22T18:36:55.616Z,7.00
2022-08-22T18:39:59.781Z,6.80
2022-08-22T18:42:48.271Z,6.03
2022-08-22T18:45:20.658Z,6.90
2022-08-22T18:47:56.120Z,6.57
2022-08-22T18:50:48.003Z,6.47
2022-08-22T18:53:40.330Z,6.68
2022-08-22T18:56:41.033Z,7.28
2022-08-22T18:59:30.309Z,6.82
2022-08-22T19:02:27.482Z,7.05
2022-08-22T19:05:34.080Z,6.72
2022-08-22T19:08:32.116Z,6.93
2022-08-22T19:11:46.142Z,6.80
2022-08-22T19:14:27.777Z,6.47
2022-08-22T19:17:16.712Z,6.75
2022-08-22T19:20:19.556Z,6.38
2022-08-22T19:22:55.165Z,6.57
2022-08-22T19:25:47.011Z,6.68
2022-08-22T19:28:34.204Z,6.38
2022-08-22T19:34:39.669Z,7.30
2022-08-22T19:37:32.101Z,6.97
2022-08-22T19:40:10.070Z,6.40
2022-08-22T19:42:43.543Z,6.60
2022-08-22T19:45:24.922Z,6.78
2022-08-22T19:48:01.523Z,6.85
2022-08-22T19:50:40.787Z,7.47
2022-08-22T19:53:30.469Z,7.53
2022-08-22T19:56:23.438Z,7.40
2022-08-22T19:59:07.043Z,6.57
2022-08-22T20:01:56.445Z,6.90
2022-08-22T20:04:36.728Z,7.15
2022-08-22T20:07:16.974Z,7.38
2022-08-22T20:10:09.328Z,6.95
2022-08-22T20:13:05.313Z,6.93
2022-08-22T20:16:11.440Z,6.97
2022-08-22T20:19:07.070Z,7.00
2022-08-22T20:21:40.398Z,6.63
2022-08-22T20:24:21.475Z,6.60
2022-08-22T20:27:12.621Z,7.07
2022-08-22T20:29:45.985Z,6.63
2022-08-22T20:32:15.273Z,7.07
2022-08-22T20:34:45.326Z,6.97
2022-08-22T20:37:50.357Z,6.78
2022-08-22T20:40:33.491Z,6.90
2022-08-22T20:43:24.877Z,6.35
2022-08-22T20:46:12.429Z,6.70
2022-08-22T20:48:43.468Z,6.93
2022-08-22T20:51:15.873Z,6.72
2022-08-22T20:54:10.297Z,6.43
2022-08-22T20:56:53.882Z,6.68
2022-08-22T20:59:38.117Z,6.20
2022-08-22T21:02:18.318Z,6.50
2022-08-22T21:04:49.617Z,7.60
2022-08-22T21:07:23.157Z,7.03
2022-08-22T21:10:22.539Z,6.63
2022-08-22T21:13:25.570Z,6.03
2022-08-22T21:15:55.097Z,6.20
2022-08-22T21:18:33.971Z,6.40
2022-08-22T21:21:17.356Z,6.10
2022-08-22T21:23:50.709Z,6.75
2022-08-22T21:26:39.011Z,5.93
2022-08-22T21:29:15.242Z,6.15
2022-08-22T21:31:52.346Z,5.82
2022-08-22T21:34:37.148Z,6.60
2022-08-22T21:37:36.772Z,6.88
2022-08-22T21:40:35.149Z,6.65
2022-08-22T21:43:26.493Z,6.15
2022-08-22T21:45:55.256Z,6.13
2022-08-22T21:48:38.705Z,6.10
2022-08-22T21:51:44.654Z,6.60
2022-08-22T21:54:32.139Z,6.38
2022-08-22T21:57:15.491Z,6.63
2022-08-22T21:59:51.417Z,6.65
2022-08-22T22:02:37.445Z,6.57
2022-08-22T22:05:17.006Z,6.55
2022-08-22T22:07:46.546Z,6.22
2022-08-22T22:10:16.840Z,6.00
2022-08-22T22:12:46.316Z,7.43
2022-08-22T22:15:16.801Z,6.57
2022-08-22T22:17:45.273Z,6.70
2022-08-22T22:20:15.513Z,6.65
2022-08-22T22:22:46.424Z,7.13
2022-08-22T22:25:39.766Z,7.07
2022-08-22T22:28:07.668Z,7.25
2022-08-22T22:30:36.123Z,7.32
2022-08-22T22:33:04.525Z,7.82
2022-08-22T22:35:32.955Z,6.82
2022-08-22T22:38:01.685Z,7.25
2022-08-22T22:40:30.300Z,6.63
2022-08-22T22:42:58.688Z,7.47
2022-08-22T22:45:27.047Z,7.00
2022-08-22T22:47:55.407Z,6.78
2022-08-22T22:50:24.218Z,6.28
2022-08-22T22:52:53.032Z,6.82
2022-08-22T22:55:24.264Z,6.80
2022-08-22T22:57:59.290Z,7.13
2022-08-22T23:00:31.192Z,6.32
2022-08-22T23:03:01.110Z,7.50
2022-08-22T23:05:30.244Z,7.70
2022-08-22T23:07:59.060Z,6.07
2022-08-22T23:10:27.908Z,5.93
2022-08-22T23:12:56.414Z,6.50
2022-08-22T23:15:24.695Z,6.88
2022-08-22T23:17:53.092Z,6.38
2022-08-22T23:20:21.433Z,6.20
2022-08-22T23:22:49.757Z,6.18
2022-08-22T23:25:18.215Z,6.85
2022-08-22T23:27:48.723Z,6.28
2022-08-22T23:30:27.059Z,6.28
2022-08-22T23:32:55.939Z,5.88
2022-08-22T23:35:24.327Z,6.65
2022-08-22T23:37:53.026Z,6.05
2022-08-22T23:40:21.436Z,6.35
2022-08-22T23:42:49.885Z,6.63
2022-08-22T23:45:18.275Z,7.70
2022-08-22T23:47:46.693Z,6.75
2022-08-22T23:50:14.983Z,5.90
2022-08-22T23:52:43.302Z,6.15
2022-08-22T23:55:11.695Z,6.07
2022-08-22T23:57:40.023Z,6.85
